createdAt,value
2023-02-16T00:01:21.784Z,41.92
2023-02-16T00:03:48.653Z,43.65
2023-02-16T00:06:16.408Z,39.30
2023-02-16T00:08:43.696Z,41.03
2023-02-16T00:11:34.268Z,39.35
2023-02-16T00:14:01.013Z,38.63
2023-02-16T00:16:27.507Z,39.45
2023-02-16T00:18:54.007Z,37.50
2023-02-16T00:21:20.605Z,39.47
2023-02-16T00:23:48.384Z,39.88
2023-02-16T00:26:17.610Z,39.08
2023-02-16T00:28:44.367Z,37.15
2023-02-16T00:31:19.934Z,39.35
2023-02-16T00:33:46.858Z,37.25
2023-02-16T00:36:13.335Z,39.13
2023-02-16T00:38:39.985Z,38.45
2023-02-16T00:41:26.490Z,38.22
2023-02-16T00:43:54.894Z,38.30
2023-02-16T00:46:21.404Z,40.85
2023-02-16T00:48:47.943Z,40.85
2023-02-16T00:51:25.419Z,40.40
2023-02-16T00:53:52.722Z,39.42
2023-02-16T00:56:20.717Z,39.80
2023-02-16T00:58:47.827Z,38.53
2023-02-16T01:01:15.224Z,38.83
2023-02-16T01:03:42.197Z,39.38
2023-02-16T01:06:28.242Z,39.30
2023-02-16T01:09:14.082Z,42.00
2023-02-16T01:11:40.571Z,38.17
2023-02-16T01:14:10.089Z,39.13
2023-02-16T01:16:38.024Z,37.50
2023-02-16T01:19:04.713Z,38.35
2023-02-16T01:21:31.160Z,37.72
2023-02-16T01:23:57.655Z,37.70
2023-02-16T01:26:24.245Z,38.78
2023-02-16T01:28:50.765Z,38.08
2023-02-16T01:31:17.887Z,37.95
2023-02-16T01:33:44.458Z,41.38
2023-02-16T01:36:19.725Z,39.67
2023-02-16T01:38:46.267Z,41.58
2023-02-16T01:41:24.952Z,41.63
2023-02-16T01:43:55.042Z,42.78
2023-02-16T01:46:24.362Z,42.92
2023-02-16T01:48:50.951Z,41.70
2023-02-16T01:51:23.869Z,39.63
2023-02-16T01:53:50.322Z,40.90
2023-02-16T01:56:25.686Z,39.90
2023-02-16T01:58:54.483Z,38.10
2023-02-16T02:01:56.267Z,39.33
2023-02-16T02:04:43.373Z,38.92
2023-02-16T02:07:14.878Z,38.50
2023-02-16T02:09:49.597Z,37.22
2023-02-16T02:12:22.110Z,42.30
2023-02-16T02:14:49.229Z,38.35
2023-02-16T02:17:17.795Z,38.60
2023-02-16T02:20:03.019Z,37.67
2023-02-16T02:23:11.268Z,37.97
2023-02-16T02:25:43.492Z,35.03
2023-02-16T02:28:14.625Z,36.70
2023-02-16T02:30:55.649Z,36.75
2023-02-16T02:33:40.443Z,28.20
2023-02-16T02:36:15.820Z,37.78
2023-02-16T02:38:42.261Z,35.88
2023-02-16T02:41:15.635Z,36.10
2023-02-16T02:43:50.641Z,37.58
2023-02-16T02:46:43.541Z,35.40
2023-02-16T02:49:09.962Z,35.65
2023-02-16T02:51:40.375Z,35.97
2023-02-16T02:54:30.208Z,37.55
2023-02-16T02:57:18.102Z,36.63
2023-02-16T03:00:05.862Z,38.10
2023-02-16T03:02:34.498Z,37.60
2023-02-16T03:05:02.619Z,37.50
2023-02-16T03:07:48.312Z,36.58
2023-02-16T03:10:44.194Z,35.13
2023-02-16T03:13:17.308Z,36.30
2023-02-16T03:15:45.739Z,38.00
2023-02-16T03:18:31.660Z,38.72
2023-02-16T03:21:17.485Z,36.20
2023-02-16T03:24:03.402Z,37.72
2023-02-16T03:26:49.404Z,37.25
2023-02-16T03:29:21.285Z,38.47
2023-02-16T03:34:15.281Z,36.63
2023-02-16T03:36:44.576Z,38.80
2023-02-16T03:39:11.673Z,40.13
2023-02-16T03:41:40.083Z,39.00
2023-02-16T03:44:06.545Z,39.53
2023-02-16T03:46:33.237Z,38.50
2023-02-16T03:48:59.676Z,37.28
2023-02-16T03:51:26.190Z,39.88
2023-02-16T03:53:52.703Z,41.55
2023-02-16T03:56:19.235Z,43.03
2023-02-16T03:58:45.801Z,41.55
2023-02-16T04:01:12.292Z,44.35
2023-02-16T04:03:38.803Z,43.63
2023-02-16T04:06:05.336Z,41.20
2023-02-16T04:08:33.186Z,43.17
2023-02-16T04:11:00.388Z,40.08
2023-02-16T04:13:26.857Z,41.70
2023-02-16T04:15:53.361Z,41.75
2023-02-16T04:18:19.792Z,41.20
2023-02-16T04:20:46.600Z,42.38
2023-02-16T04:23:13.028Z,43.38
2023-02-16T04:25:39.494Z,41.13
2023-02-16T04:28:05.963Z,49.13
2023-02-16T04:30:32.685Z,47.28
2023-02-16T04:32:59.659Z,45.30
2023-02-16T04:35:26.256Z,44.55
2023-02-16T04:37:52.753Z,43.80
2023-02-16T04:40:19.553Z,43.65
2023-02-16T04:42:46.216Z,45.13
2023-02-16T04:45:12.793Z,44.25
2023-02-16T04:47:39.351Z,42.55
2023-02-16T04:50:06.239Z,42.65
2023-02-16T04:52:34.406Z,44.08
2023-02-16T04:55:00.975Z,42.92
2023-02-16T04:57:27.549Z,42.40
2023-02-16T04:59:53.995Z,41.65
2023-02-16T05:02:20.456Z,45.47
2023-02-16T05:04:46.908Z,43.28
2023-02-16T05:07:13.464Z,44.25
2023-02-16T05:09:40.031Z,43.55
2023-02-16T05:12:25.259Z,43.50
2023-02-16T05:14:51.839Z,42.47
2023-02-16T05:17:19.484Z,41.70
2023-02-16T05:19:47.479Z,40.13
2023-02-16T05:22:14.369Z,41.42
2023-02-16T05:24:41.680Z,41.33
2023-02-16T05:27:09.638Z,40.83
2023-02-16T05:29:36.162Z,40.33
2023-02-16T05:32:04.696Z,39.35
2023-02-16T05:34:31.420Z,41.17
2023-02-16T05:36:57.957Z,41.30
2023-02-16T05:39:24.591Z,42.25
2023-02-16T05:41:51.134Z,42.10
2023-02-16T05:44:17.628Z,41.58
2023-02-16T05:46:44.236Z,40.88
2023-02-16T05:49:11.012Z,41.22
2023-02-16T05:51:38.055Z,41.58
2023-02-16T05:54:04.797Z,43.40
2023-02-16T05:56:31.499Z,45.63
2023-02-16T05:58:58.578Z,42.53
2023-02-16T06:01:25.012Z,45.47
2023-02-16T06:03:51.505Z,45.95
2023-02-16T06:06:18.048Z,45.55
2023-02-16T06:08:44.689Z,42.17
2023-02-16T06:11:31.648Z,49.15
2023-02-16T06:13:59.327Z,45.90
2023-02-16T06:16:26.816Z,43.42
2023-02-16T06:18:54.071Z,40.78
2023-02-16T06:21:21.111Z,39.92
2023-02-16T06:23:47.867Z,41.10
2023-02-16T06:26:14.565Z,41.33
2023-02-16T06:28:41.006Z,43.30
2023-02-16T06:31:07.896Z,43.75
2023-02-16T06:33:34.607Z,45.85
2023-02-16T06:36:01.161Z,44.58
2023-02-16T06:38:27.644Z,44.40
2023-02-16T06:40:54.744Z,43.35
2023-02-16T06:43:21.323Z,44.55
2023-02-16T06:45:48.062Z,46.15
2023-02-16T06:48:14.684Z,43.85
2023-02-16T06:50:41.110Z,42.92
2023-02-16T06:53:07.552Z,41.97
2023-02-16T06:55:36.828Z,43.05
2023-02-16T06:58:03.981Z,46.97
2023-02-16T07:00:30.586Z,44.67
2023-02-16T07:02:57.146Z,41.05
2023-02-16T07:05:23.978Z,41.67
2023-02-16T07:07:50.441Z,39.85
2023-02-16T07:10:16.961Z,42.80
2023-02-16T07:12:43.439Z,45.78
2023-02-16T07:15:09.884Z,42.92
2023-02-16T07:17:36.420Z,44.72
2023-02-16T07:20:04.500Z,46.55
2023-02-16T07:22:31.063Z,46.10
2023-02-16T07:24:58.957Z,45.72
2023-02-16T07:27:25.721Z,43.53
2023-02-16T07:29:52.248Z,43.05
2023-02-16T07:32:18.783Z,43.92
2023-02-16T07:34:45.956Z,40.65
2023-02-16T07:37:12.404Z,43.85
2023-02-16T07:39:38.839Z,42.60
2023-02-16T07:42:05.498Z,40.28
2023-02-16T07:44:31.903Z,40.65
2023-02-16T07:46:58.376Z,40.47
2023-02-16T07:49:24.867Z,39.63
2023-02-16T07:51:51.311Z,34.70
2023-02-16T07:54:17.782Z,38.78
2023-02-16T07:56:44.276Z,41.03
2023-02-16T07:59:10.777Z,45.30
2023-02-16T08:01:37.599Z,46.97
2023-02-16T08:04:04.166Z,47.15
2023-02-16T08:06:30.595Z,48.20
2023-02-16T15:56:29.761Z,40.42
2023-02-16T15:58:57.998Z,37.95
2023-02-16T16:01:33.232Z,40.35
2023-02-16T16:04:17.763Z,39.58
2023-02-16T16:06:46.126Z,39.33
2023-02-16T16:09:18.151Z,41.58
2023-02-16T16:11:44.692Z,38.78
2023-02-16T16:14:11.408Z,39.78
2023-02-16T16:16:38.006Z,37.55
2023-02-16T16:19:14.238Z,37.72
2023-02-16T16:21:51.361Z,36.92
2023-02-16T16:24:28.479Z,35.88
2023-02-16T16:26:56.535Z,38.53
2023-02-16T16:29:34.035Z,36.30
2023-02-16T16:32:01.006Z,35.50
2023-02-16T16:34:38.363Z,34.78
2023-02-16T16:37:07.630Z,33.75
2023-02-16T16:39:39.140Z,36.40
2023-02-16T16:42:15.018Z,37.10
2023-02-16T16:44:42.657Z,35.95
2023-02-16T16:47:22.906Z,38.60
2023-02-16T16:49:54.571Z,40.63
2023-02-16T16:52:31.277Z,45.72
2023-02-16T16:54:57.739Z,47.80
2023-02-16T16:57:24.584Z,84.93
2023-02-16T16:59:51.308Z,63.72
2023-02-16T17:02:17.982Z,45.92
2023-02-16T17:04:44.408Z,42.70
2023-02-16T17:07:10.926Z,43.30
2023-02-16T17:09:37.415Z,41.78
2023-02-16T17:12:04.073Z,41.45
2023-02-16T17:14:30.557Z,40.55
2023-02-16T17:16:58.520Z,45.47
2023-02-16T17:19:27.298Z,44.55
2023-02-16T17:21:53.703Z,42.42
2023-02-16T17:24:20.541Z,42.15
2023-02-16T17:26:47.089Z,41.28
2023-02-16T17:29:13.667Z,93.63
2023-02-16T17:31:40.181Z,170.02
2023-02-16T17:34:06.611Z,124.53
2023-02-16T17:36:34.375Z,100.43
2023-02-16T17:39:00.931Z,101.75
2023-02-16T17:41:28.141Z,76.05
2023-02-16T17:43:54.655Z,57.42
2023-02-16T17:46:22.394Z,55.33
2023-02-16T17:48:49.954Z,57.97
2023-02-16T17:51:17.819Z,64.57
2023-02-16T17:53:44.674Z,89.93
2023-02-16T17:56:12.432Z,84.20
2023-02-16T17:58:39.340Z,87.13
2023-02-16T18:01:05.816Z,77.18
2023-02-16T18:03:32.304Z,84.97
2023-02-16T18:05:58.791Z,92.05
2023-02-16T18:08:25.201Z,80.13
2023-02-16T18:10:53.166Z,81.68
2023-02-16T18:13:19.673Z,93.40
2023-02-16T18:15:48.182Z,98.38
2023-02-16T18:18:15.766Z,129.40
2023-02-16T18:20:42.452Z,128.75
2023-02-16T18:23:08.975Z,124.05
2023-02-16T18:25:35.588Z,111.57
2023-02-16T18:28:02.121Z,144.05
2023-02-16T18:30:29.056Z,115.53
2023-02-16T18:32:55.549Z,108.82
2023-02-16T18:35:22.184Z,103.72
2023-02-16T18:37:48.697Z,102.88
2023-02-16T18:40:17.672Z,120.57
2023-02-16T18:42:44.574Z,108.75
2023-02-16T18:45:11.048Z,130.40
2023-02-16T18:47:37.609Z,124.25
2023-02-16T18:50:04.855Z,123.10
2023-02-16T18:52:31.273Z,120.90
2023-02-16T18:54:57.711Z,120.38
2023-02-16T18:57:24.251Z,170.30
2023-02-16T18:59:50.785Z,185.00
2023-02-16T19:02:17.290Z,190.93
2023-02-16T19:04:43.852Z,335.60
2023-02-16T19:07:10.321Z,193.43
2023-02-16T19:09:36.880Z,168.90
2023-02-16T19:12:03.364Z,161.13
2023-02-16T19:14:29.793Z,151.73
2023-02-16T19:16:56.432Z,146.13
2023-02-16T19:19:22.906Z,139.90
2023-02-16T19:21:49.419Z,128.50
2023-02-16T19:24:15.850Z,118.53
2023-02-16T19:26:42.346Z,113.75
2023-02-16T19:29:08.765Z,109.88
2023-02-16T19:31:35.923Z,110.30
2023-02-16T19:34:02.452Z,101.93
2023-02-16T19:36:34.125Z,100.85
2023-02-16T19:39:01.469Z,97.53
2023-02-16T19:41:32.699Z,86.90
2023-02-16T19:43:59.608Z,84.05
2023-02-16T19:48:54.524Z,106.70
2023-02-16T19:51:21.122Z,99.15
2023-02-16T19:53:47.647Z,95.22
2023-02-16T19:56:15.402Z,77.63
2023-02-16T19:58:42.147Z,100.68
2023-02-16T20:01:09.965Z,120.38
2023-02-16T20:03:36.716Z,112.78
2023-02-16T20:06:16.904Z,109.57
2023-02-16T20:08:44.126Z,102.53
2023-02-16T20:11:10.559Z,111.07
2023-02-16T20:13:37.370Z,101.65
2023-02-16T20:16:05.019Z,94.47
2023-02-16T20:18:32.000Z,107.53
2023-02-16T20:20:59.610Z,101.55
2023-02-16T20:23:26.410Z,99.95
2023-02-16T20:25:52.868Z,95.40
2023-02-16T20:28:19.372Z,101.68
2023-02-16T20:30:45.876Z,108.30
2023-02-16T20:33:12.425Z,106.07
2023-02-16T20:35:38.920Z,124.65
2023-02-16T20:38:05.312Z,151.60
2023-02-16T20:40:31.766Z,175.13
2023-02-16T20:42:58.255Z,169.95
2023-02-16T20:45:24.741Z,155.88
2023-02-16T20:47:51.176Z,152.93
2023-02-16T20:50:17.694Z,169.05
2023-02-16T20:52:44.305Z,156.55
2023-02-16T20:55:10.826Z,138.50
2023-02-16T20:57:37.684Z,130.18
2023-02-16T21:00:06.114Z,133.82
2023-02-16T21:02:32.660Z,200.85
2023-02-16T21:04:59.102Z,157.45
2023-02-16T21:07:25.521Z,146.95
2023-02-16T21:09:51.934Z,130.90
2023-02-16T21:12:18.437Z,125.22
2023-02-16T21:14:44.931Z,124.00
2023-02-16T21:17:11.356Z,119.60
2023-02-16T21:19:39.646Z,115.57
2023-02-16T21:22:06.123Z,115.55
2023-02-16T21:24:32.639Z,117.50
2023-02-16T21:26:59.307Z,111.07
2023-02-16T21:29:25.847Z,106.45
2023-02-16T21:31:52.430Z,107.07
2023-02-16T21:34:20.522Z,104.47
2023-02-16T21:36:47.052Z,107.97
2023-02-16T21:39:13.560Z,112.78
2023-02-16T21:41:40.008Z,109.93
2023-02-16T21:44:08.130Z,125.28
2023-02-16T21:46:35.997Z,143.98
2023-02-16T21:49:03.339Z,124.47
2023-02-16T21:51:31.329Z,141.25
2023-02-16T21:53:57.894Z,141.82
2023-02-16T21:56:33.030Z,135.57
2023-02-16T21:58:59.694Z,140.70
2023-02-16T22:01:28.092Z,125.05
2023-02-16T22:03:58.684Z,129.25
2023-02-16T22:06:26.364Z,127.97
2023-02-16T22:08:53.204Z,130.82
2023-02-16T22:11:19.697Z,138.93
2023-02-16T22:13:46.145Z,144.32
2023-02-16T22:16:19.097Z,175.85
2023-02-16T22:18:45.848Z,164.77
2023-02-16T22:21:12.534Z,150.75
2023-02-16T22:23:39.156Z,134.95
2023-02-16T22:26:06.710Z,128.57
2023-02-16T22:28:33.662Z,116.95
2023-02-16T22:31:05.521Z,124.13
2023-02-16T22:35:58.258Z,124.30
2023-02-16T22:38:24.848Z,157.10
2023-02-16T22:40:51.640Z,130.48
2023-02-16T22:43:18.126Z,128.50
2023-02-16T22:45:44.667Z,120.70
2023-02-16T22:48:11.101Z,114.25
2023-02-16T22:50:37.485Z,118.70
2023-02-16T22:53:04.016Z,122.13
2023-02-16T22:55:30.525Z,124.82
2023-02-16T22:57:57.029Z,111.60
2023-02-16T23:00:23.474Z,121.65
2023-02-16T23:02:49.984Z,109.63
2023-02-16T23:05:16.497Z,115.78
2023-02-16T23:07:43.027Z,117.60
2023-02-16T23:10:09.613Z,109.55
2023-02-16T23:12:36.062Z,122.78
2023-02-16T23:15:02.613Z,156.65
2023-02-16T23:17:29.457Z,149.80
2023-02-16T23:19:55.987Z,146.00
2023-02-16T23:22:22.484Z,131.90
2023-02-16T23:25:08.870Z,128.30
2023-02-16T23:27:35.796Z,127.65
2023-02-16T23:30:02.532Z,123.85
2023-02-16T23:32:29.006Z,117.88
2023-02-16T23:34:55.418Z,110.68
2023-02-16T23:37:21.914Z,110.93
2023-02-16T23:39:48.343Z,107.07
2023-02-16T23:42:17.584Z,109.55
2023-02-16T23:44:44.116Z,104.97
2023-02-16T23:47:10.595Z,97.70
2023-02-16T23:49:37.086Z,97.70
2023-02-16T23:52:03.665Z,92.90
2023-02-16T23:54:30.150Z,93.90
2023-02-16T23:56:59.002Z,99.00
2023-02-16T23:59:25.990Z,94.45
